Messwerte Fort St.John

Temperatur

Temperatur
°C
1573704000 20.00 20.00 -7
1573707600 21.00 21.00 -7
1573711200 22.00 22.00 -7
1573714800 23.00 23.00 -7
1573718400 0.00 0.00 -7
1573722000 1.00 1.00
1573725600 2.00 2.00 -7
1573729200 3.00 3.00
1573732800 4.00 4.00
1573736400 5.00 5.00
1573740000 6.00 6.00
1573743600 7.00 7.00
1573747200 8.00 8.00 -7
1573750800 9.00 9.00 -7
1573754400 10.00 10.00 -7
1573758000 11.00 11.00 -7
1573761600 12.00 12.00 -6
1573765200 13.00 13.00 -6
1573768800 14.00 14.00 -6
1573772400 15.00 15.00 -5
1573776000 16.00 16.00 -5
1573779600 17.00 17.00 -5
1573783200 18.00 18.00 -6
1573786800 19.00 19.00 -5

Aktuellste Messwerte

Wettercharakter
Wetter: wechselnd bewölkt
Temperatur
-5 °C
Feuchtigkeit
93 %
Wind
15 km/hWindrichtung: Südost
Luftdruck
1005 hPa
Messzeit: 14. November 2019, 20.00Datenquelle: METAR

Weitere Messstationen in der Nähe

Messstation Temperatur Entfernung
Cleardale Agdm -5 °C 61 km
Fairview Agdm -4 °C 143 km
Grande Prairie -6 °C 164 km
Peoria Agdm -5 °C 166 km
Mackenzie 2 °C 182 km
Peace River -4 °C 204 km
Manning Agdm -8 °C 217 km

Wind

Windrichtung Böen Mittelwind
° km/h km/h
1573704000 20.00 19.00 - 20.00 350° 20
1573707600 21.00 20.00 - 21.00 350° 20
1573711200 22.00 21.00 - 22.00 350° 15
1573714800 23.00 22.00 - 23.00 350° 10
1573718400 0.00 23.00 - 0.00 360° 15
1573722000 1.00 0.00 - 1.00
1573725600 2.00 1.00 - 2.00 350° 15
1573729200 3.00 2.00 - 3.00
1573732800 4.00 3.00 - 4.00 300° 10
1573736400 5.00 4.00 - 5.00 40° 5
1573740000 6.00 5.00 - 6.00
1573743600 7.00 6.00 - 7.00 110° 15
1573747200 8.00 7.00 - 8.00 110° 20
1573750800 9.00 8.00 - 9.00 110° 20
1573754400 10.00 9.00 - 10.00 120° 20
1573758000 11.00 10.00 - 11.00 120° 20
1573761600 12.00 11.00 - 12.00 110° 15
1573765200 13.00 12.00 - 13.00 120° 15
1573768800 14.00 13.00 - 14.00 110° 20
1573772400 15.00 14.00 - 15.00 110° 15
1573776000 16.00 15.00 - 16.00 100° 15
1573779600 17.00 16.00 - 17.00 100° 15
1573783200 18.00 17.00 - 18.00 100° 10
1573786800 19.00 18.00 - 19.00 120° 5

Ihre Wetterstation

Fehlt Ihre Wetterstation auf unserem Portal?

Schreiben Sie an network@meteonews.ch

Klima

Wann ist es am wärmsten? Wann regnet es am wenigsten? Unsere Klimadaten geben Auskunft.